Time;durP1;ratioP1;P1;durP2;ratioP2;P2;SDS_P1;SDS_P2;PMS_P1;PMS_P2;Temp;Humidity;BMP_temperature;BMP_pressure;BME280_temperature;BME280_humidity;BME280_pressure;Samples;Min_cycle;Max_cycle;Signal;HPM_P1;HPM_P2
2023/03/21 00:00:25;;;;;;;2.78;2.20;;;;;;;7.85;100.00;101161.78;5043188;28;20178;-67
2023/03/21 00:02:51;;;;;;;3.28;1.90;;;;;;;7.96;100.00;101161.41;5061138;28;20033;-67
2023/03/21 00:05:17;;;;;;;3.75;2.10;;;;;;;7.82;100.00;101141.53;5060547;28;20029;-67
2023/03/21 00:07:42;;;;;;;2.92;2.38;;;;;;;8.04;100.00;101166.72;5026520;28;20033;-67
2023/03/21 00:10:09;;;;;;;2.70;2.05;;;;;;;7.92;100.00;101152.88;5060643;28;20151;-67
2023/03/21 00:12:36;;;;;;;2.90;1.77;;;;;;;7.94;100.00;101161.56;5043138;28;20106;-67
2023/03/21 00:15:06;;;;;;;1.92;1.60;;;;;;;7.95;100.00;101151.72;5043307;28;20080;-67
2023/03/21 00:17:32;;;;;;;1.50;1.23;;;;;;;7.84;100.00;101147.53;5060973;28;20041;-68
2023/03/21 00:19:59;;;;;;;1.88;1.20;;;;;;;7.83;100.00;101142.38;5043316;28;20028;-67
2023/03/21 00:22:26;;;;;;;1.42;1.10;;;;;;;7.77;100.00;101122.44;5060146;28;20036;-66
2023/03/21 00:24:55;;;;;;;1.60;0.98;;;;;;;8.02;100.00;101144.63;5056402;28;20056;-67
2023/03/21 00:27:20;;;;;;;1.13;0.77;;;;;;;8.06;100.00;101153.16;5059895;28;20036;-67
2023/03/21 00:29:50;;;;;;;1.77;0.90;;;;;;;7.95;100.00;101147.19;5060938;28;20021;-67
2023/03/21 00:32:16;;;;;;;0.82;0.55;;;;;;;7.98;100.00;101152.19;5064975;28;20045;-67
2023/03/21 00:34:42;;;;;;;0.90;0.80;;;;;;;7.96;100.00;101148.00;5044391;28;20056;-67
2023/03/21 00:37:10;;;;;;;1.02;0.90;;;;;;;7.87;100.00;101139.16;5043390;28;20347;-67
2023/03/21 00:39:36;;;;;;;0.70;0.60;;;;;;;8.09;100.00;101152.81;5043154;28;20021;-67
2023/03/21 00:42:02;;;;;;;0.60;0.60;;;;;;;8.15;100.00;101136.03;5059908;28;20028;-66
2023/03/21 00:44:28;;;;;;;1.17;0.80;;;;;;;8.09;100.00;101142.09;5042121;28;20186;-67
2023/03/21 00:46:54;;;;;;;1.25;0.82;;;;;;;8.06;100.00;101121.84;5059703;28;20040;-67
2023/03/21 00:49:19;;;;;;;0.60;0.60;;;;;;;8.19;100.00;101132.81;5041705;28;20029;-67
2023/03/21 00:51:45;;;;;;;0.88;0.60;;;;;;;8.29;100.00;101137.97;5024983;28;20175;-67
2023/03/21 00:54:12;;;;;;;0.52;0.50;;;;;;;8.33;100.00;101143.81;5059098;28;20318;-67
2023/03/21 00:56:37;;;;;;;0.75;0.60;;;;;;;8.27;100.00;101145.34;5058760;28;20028;-67
2023/03/21 00:59:03;;;;;;;0.90;0.68;;;;;;;8.23;99.93;101138.66;5040432;28;20029;-67
2023/03/21 01:01:30;;;;;;;1.33;0.70;;;;;;;8.28;100.00;101146.16;5058701;28;20029;-67
2023/03/21 01:04:06;;;;;;;0.93;0.75;;;;;;;8.30;99.84;101146.84;5041769;28;20407;-67
2023/03/21 01:06:38;;;;;;;1.08;0.70;;;;;;;8.29;99.11;101145.19;5059837;28;20021;-65
2023/03/21 01:09:04;;;;;;;1.23;0.70;;;;;;;8.25;99.53;101147.38;5060055;28;20036;-67
2023/03/21 01:11:30;;;;;;;1.00;0.70;;;;;;;8.17;99.30;101155.44;5059684;28;20032;-67
2023/03/21 01:13:56;;;;;;;1.08;0.65;;;;;;;8.08;99.96;101149.31;5059836;28;20074;-66
2023/03/21 01:16:22;;;;;;;0.90;0.50;;;;;;;7.96;99.16;101139.97;5059415;28;20090;-67
2023/03/21 01:18:48;;;;;;;1.40;0.60;;;;;;;7.94;99.82;101140.13;5040933;28;20033;-67
2023/03/21 01:21:13;;;;;;;1.38;0.70;;;;;;;7.83;99.63;101137.00;5055186;28;20021;-66
2023/03/21 01:23:41;;;;;;;0.65;0.50;;;;;;;7.76;99.51;101134.19;5059023;28;20087;-67
2023/03/21 01:26:09;;;;;;;0.88;0.60;;;;;;;7.63;99.59;101123.19;5059224;28;20051;-67
2023/03/21 01:28:40;;;;;;;0.57;0.40;;;;;;;7.57;99.23;101131.91;5042018;28;20086;-67
2023/03/21 01:31:05;;;;;;;0.65;0.50;;;;;;;7.51;99.34;101136.09;5058527;28;20040;-67
2023/03/21 01:33:32;;;;;;;0.65;0.60;;;;;;;7.41;99.44;101125.56;5059281;28;20029;-67
2023/03/21 01:35:58;;;;;;;0.50;0.50;;;;;;;7.38;98.86;101131.25;5041651;28;20124;-67
2023/03/21 01:38:24;;;;;;;0.60;0.50;;;;;;;7.43;99.14;101136.13;5041673;28;20031;-67
2023/03/21 01:40:50;;;;;;;1.38;0.60;;;;;;;7.42;99.17;101126.41;5060191;28;20040;-67
2023/03/21 01:43:28;;;;;;;0.82;0.80;;;;;;;7.43;99.31;101136.94;5059622;28;20029;-67
2023/03/21 01:46:09;;;;;;;1.13;0.77;;;;;;;7.47;99.32;101132.09;5059581;28;20025;-67
2023/03/21 01:48:42;;;;;;;2.15;1.00;;;;;;;7.51;99.35;101139.59;5060304;28;20040;-67
2023/03/21 01:51:11;;;;;;;0.77;0.70;;;;;;;7.59;99.35;101140.59;5045265;28;20033;-67
2023/03/21 01:53:38;;;;;;;1.00;0.80;;;;;;;7.66;98.56;101146.94;5062982;28;20021;-67
2023/03/21 01:56:11;;;;;;;1.13;1.00;;;;;;;7.69;98.71;101135.88;5042549;28;20036;-67
2023/03/21 01:58:39;;;;;;;1.35;0.70;;;;;;;7.70;98.89;101138.38;5059522;28;20089;-68
2023/03/21 02:01:05;;;;;;;1.13;0.90;;;;;;;7.63;98.70;101133.88;5041321;28;20037;-66
2023/03/21 02:03:36;;;;;;;1.38;1.20;;;;;;;7.69;98.97;101146.59;5041372;28;20036;-66
2023/03/21 02:06:12;;;;;;;1.95;1.40;;;;;;;7.63;100.00;101150.78;5058295;28;20040;-65
2023/03/21 02:08:38;;;;;;;2.47;1.60;;;;;;;7.70;99.77;101149.09;5051976;28;20029;-66
2023/03/21 02:11:08;;;;;;;2.03;1.63;;;;;;;7.76;99.05;101152.94;5058816;28;20021;-67
2023/03/21 02:13:35;;;;;;;2.10;1.85;;;;;;;7.78;99.30;101158.94;5040368;28;20028;-67
2023/03/21 02:16:38;;;;;;;2.03;1.77;;;;;;;7.84;99.76;101174.31;5055452;28;20108;-67
2023/03/21 02:19:30;;;;;;;3.17;2.58;;;;;;;7.73;99.02;101140.72;5037051;28;20498;-66
2023/03/21 02:22:39;;;;;;;3.78;3.38;;;;;;;7.75;99.38;101165.50;5057963;28;20029;-67
2023/03/21 02:25:40;;;;;;;6.25;4.80;;;;;;;7.73;99.74;101170.19;5057875;28;20049;-67
2023/03/21 02:28:20;;;;;;;4.53;4.13;;;;;;;7.78;99.81;101166.97;5051548;28;20090;-66
2023/03/21 02:31:16;;;;;;;4.90;4.47;;;;;;;7.80;100.00;101166.81;5058146;28;20060;-67
2023/03/21 02:33:54;;;;;;;4.95;4.40;;;;;;;7.86;100.00;101166.97;5058158;28;20487;-67
2023/03/21 02:36:35;;;;;;;5.07;4.50;;;;;;;7.91;99.69;101156.59;5040329;28;20025;-67
2023/03/21 02:39:13;;;;;;;6.07;5.47;;;;;;;7.88;99.52;101158.75;5058177;28;20025;-66
2023/03/21 02:42:00;;;;;;;6.40;5.80;;;;;;;7.93;99.84;101154.53;5058244;28;20535;-67
2023/03/21 02:44:36;;;;;;;6.25;5.53;;;;;;;7.91;100.00;101150.34;5040668;28;20131;-67
2023/03/21 02:47:07;;;;;;;6.22;5.63;;;;;;;7.95;100.00;101160.56;5040572;28;20484;-68
2023/03/21 02:49:44;;;;;;;6.00;5.40;;;;;;;8.00;99.84;101152.84;5058922;28;20033;-67
2023/03/21 02:52:21;;;;;;;6.70;5.95;;;;;;;7.86;100.00;101132.13;5043957;28;20029;-67
2023/03/21 02:54:48;;;;;;;7.28;6.57;;;;;;;7.87;100.00;101139.16;5043751;28;20098;-66
2023/03/21 02:57:18;;;;;;;7.60;6.03;;;;;;;7.90;100.00;101133.44;5043491;28;20071;-67
2023/03/21 02:59:46;;;;;;;6.90;5.80;;;;;;;7.78;100.00;101142.88;5060608;28;20029;-66
2023/03/21 03:02:13;;;;;;;7.00;6.30;;;;;;;7.70;100.00;101119.63;5042599;28;20112;-67
2023/03/21 03:04:38;;;;;;;6.35;5.75;;;;;;;7.80;100.00;101148.06;5061117;28;20476;-67
2023/03/21 03:07:26;;;;;;;6.38;5.72;;;;;;;7.84;100.00;101141.34;5043436;28;20140;-67
2023/03/21 03:10:09;;;;;;;6.80;5.60;;;;;;;7.87;100.00;101132.97;5061666;28;20033;-67
2023/03/21 03:13:03;;;;;;;6.85;6.15;;;;;;;7.85;100.00;101133.16;5046276;28;20037;-67
2023/03/21 03:15:44;;;;;;;7.72;6.93;;;;;;;7.68;100.00;101135.06;5065316;28;20029;-66
2023/03/21 03:18:26;;;;;;;7.70;6.93;;;;;;;7.53;100.00;101134.91;5044827;28;20021;-66
2023/03/21 03:21:09;;;;;;;7.90;7.10;;;;;;;7.55;100.00;101137.44;5042902;28;20119;-67
2023/03/21 03:23:58;;;;;;;7.47;6.63;;;;;;;7.45;100.00;101137.63;5041513;28;20096;-67
2023/03/21 03:26:35;;;;;;;7.13;6.18;;;;;;;7.49;100.00;101146.97;5060262;28;20025;-67
2023/03/21 03:29:06;;;;;;;8.02;6.47;;;;;;;7.69;100.00;101151.97;5060135;28;20559;-67
2023/03/21 03:31:36;;;;;;;6.95;6.20;;;;;;;7.73;100.00;101153.28;5043148;28;20162;-67
2023/03/21 03:34:08;;;;;;;6.22;5.63;;;;;;;7.56;100.00;101157.00;5062018;28;20487;-67
2023/03/21 03:36:40;;;;;;;6.43;5.82;;;;;;;7.60;100.00;101156.47;5060913;28;20024;-67
2023/03/21 03:39:09;;;;;;;6.45;5.30;;;;;;;7.68;100.00;101152.94;5061864;28;20048;-67
2023/03/21 03:41:43;;;;;;;6.03;5.22;;;;;;;7.39;100.00;101087.44;5061256;28;20049;-66
2023/03/21 03:44:09;;;;;;;6.43;5.35;;;;;;;7.85;100.00;101154.59;5042524;28;20025;-67
2023/03/21 03:46:56;;;;;;;5.95;5.15;;;;;;;7.90;99.96;101154.88;5060917;28;20375;-67
2023/03/21 03:49:25;;;;;;;5.88;4.93;;;;;;;7.77;100.00;101133.16;5060846;28;20066;-67
2023/03/21 03:51:58;;;;;;;5.28;4.78;;;;;;;7.91;100.00;101155.72;5042590;28;20047;-67
2023/03/21 03:54:32;;;;;;;5.43;4.70;;;;;;;7.91;99.83;101155.72;5061116;28;20420;-67
2023/03/21 03:56:58;;;;;;;6.03;5.43;;;;;;;7.76;100.00;101150.25;5041578;28;20060;-67
2023/03/21 03:59:24;;;;;;;7.50;5.00;;;;;;;7.66;100.00;101121.00;5041038;28;20472;-67
2023/03/21 04:01:50;;;;;;;6.90;5.40;;;;;;;7.88;100.00;101150.69;5057705;28;20025;-66
2023/03/21 04:04:16;;;;;;;7.35;4.28;;;;;;;7.73;100.00;101115.78;5057479;28;20021;-67
2023/03/21 04:06:50;;;;;;;4.20;3.80;;;;;;;7.88;100.00;101139.97;5041700;28;20472;-67
2023/03/21 04:09:16;;;;;;;5.25;3.75;;;;;;;7.88;100.00;101143.53;5042175;28;20033;-68
2023/03/21 04:11:42;;;;;;;4.30;3.90;;;;;;;7.93;100.00;101145.69;5042477;28;20098;-67
2023/03/21 04:14:08;;;;;;;4.13;3.72;;;;;;;7.92;99.96;101142.16;5060521;28;20028;-66
2023/03/21 04:16:33;;;;;;;3.55;3.25;;;;;;;7.94;100.00;101140.13;5060189;28;20107;-66
2023/03/21 04:18:59;;;;;;;4.05;3.65;;;;;;;7.89;100.00;101123.75;5060009;28;20028;-67
2023/03/21 04:21:26;;;;;;;3.90;3.45;;;;;;;7.86;99.94;101110.69;5042212;28;20025;-67
2023/03/21 04:23:53;;;;;;;4.82;3.42;;;;;;;7.92;100.00;101130.63;5025524;28;20033;-66
2023/03/21 04:26:20;;;;;;;3.78;2.53;;;;;;;7.86;100.00;101128.63;5025372;28;20410;-67
2023/03/21 04:28:45;;;;;;;3.00;2.10;;;;;;;7.79;100.00;101135.69;5040429;28;20032;-67
2023/03/21 04:31:12;;;;;;;2.72;2.30;;;;;;;7.97;99.61;101144.31;5023875;28;20033;-67
2023/03/21 04:33:38;;;;;;;3.28;2.72;;;;;;;8.04;99.07;101137.25;5058130;28;20108;-67
2023/03/21 04:36:05;;;;;;;2.80;2.38;;;;;;;8.12;98.83;101136.38;5045489;28;20060;-66
2023/03/21 04:38:32;;;;;;;4.30;2.60;;;;;;;8.07;98.53;101133.38;5069263;28;20029;-68
2023/03/21 04:40:59;;;;;;;2.60;2.22;;;;;;;8.08;98.41;101135.03;5046312;28;20029;-67
2023/03/21 04:43:24;;;;;;;2.72;2.30;;;;;;;8.10;98.40;101139.22;5042956;28;20025;-68
2023/03/21 04:45:50;;;;;;;4.32;2.30;;;;;;;7.97;98.13;101112.97;5063157;28;20095;-67
2023/03/21 04:48:23;;;;;;;2.47;2.28;;;;;;;8.16;97.91;101143.06;5026744;28;20029;-67
2023/03/21 04:50:49;;;;;;;3.17;2.33;;;;;;;8.05;98.65;101141.63;5040102;28;20021;-66
2023/03/21 04:53:14;;;;;;;2.60;2.40;;;;;;;7.98;99.41;101141.47;5004978;28;20162;-66
2023/03/21 04:55:40;;;;;;;3.30;2.75;;;;;;;7.92;99.00;101136.81;5059246;28;20082;-67
2023/03/21 04:58:05;;;;;;;2.60;2.40;;;;;;;7.91;99.32;101137.81;5040966;28;20098;-66
2023/03/21 05:00:36;;;;;;;3.13;2.40;;;;;;;7.91;99.15;101140.50;5055853;28;20055;-68
2023/03/21 05:03:03;;;;;;;2.65;2.22;;;;;;;7.90;99.57;101144.16;5041742;28;20036;-66
2023/03/21 05:05:30;;;;;;;3.22;2.80;;;;;;;7.84;99.83;101131.47;5058148;28;20391;-67
2023/03/21 05:07:56;;;;;;;3.17;2.10;;;;;;;7.86;99.84;101142.84;5057985;28;20017;-67
2023/03/21 05:10:21;;;;;;;2.10;1.90;;;;;;;7.88;100.00;101148.88;5058515;28;20021;-65
2023/03/21 05:12:46;;;;;;;2.08;1.67;;;;;;;7.87;99.40;101138.31;5040988;28;20458;-66
2023/03/21 05:15:12;;;;;;;2.10;1.77;;;;;;;7.85;99.32;101146.56;5041431;28;20775;-67
2023/03/21 05:17:37;;;;;;;2.20;1.70;;;;;;;7.78;99.00;101134.81;5024304;28;20029;-67
2023/03/21 05:20:05;;;;;;;2.05;1.77;;;;;;;7.87;99.31;101149.03;5057564;28;20103;-65
2023/03/21 05:22:39;;;;;;;3.20;1.77;;;;;;;7.78;99.19;101132.16;5040555;28;20435;-67
2023/03/21 05:25:08;;;;;;;2.10;1.90;;;;;;;7.96;99.50;101158.72;5041410;28;20048;-66
2023/03/21 05:27:34;;;;;;;3.80;2.25;;;;;;;7.87;99.46;101160.59;5038690;28;20391;-67
2023/03/21 05:30:01;;;;;;;2.10;1.77;;;;;;;7.86;99.21;101152.75;5056055;28;20523;-66
2023/03/21 05:32:26;;;;;;;2.15;1.60;;;;;;;7.86;99.69;101148.22;5056299;28;20108;-66
2023/03/21 05:34:51;;;;;;;2.25;1.55;;;;;;;7.87;99.24;101149.88;5056392;28;20100;-67
2023/03/21 05:37:17;;;;;;;4.88;1.80;;;;;;;7.87;99.15;101151.72;5039194;28;20417;-67
2023/03/21 05:39:42;;;;;;;1.80;1.70;;;;;;;7.75;99.80;101145.91;5005778;28;20028;-68
2023/03/21 05:42:08;;;;;;;2.75;2.00;;;;;;;7.68;99.45;101123.47;5022491;28;20049;-67
2023/03/21 05:44:34;;;;;;;2.95;2.50;;;;;;;7.73;99.90;101142.56;5060409;28;20021;-67
2023/03/21 05:46:59;;;;;;;3.10;2.42;;;;;;;7.60;99.92;101142.25;5060878;28;20025;-67
2023/03/21 05:49:25;;;;;;;2.55;2.20;;;;;;;7.71;99.90;101147.25;5042436;28;20044;-69
2023/03/21 05:51:51;;;;;;;4.10;2.13;;;;;;;7.67;99.53;101148.59;5042998;28;20021;-67
2023/03/21 05:54:16;;;;;;;2.53;2.33;;;;;;;7.54;99.73;101133.91;5045706;28;20051;-66
2023/03/21 05:56:42;;;;;;;2.90;2.47;;;;;;;7.62;99.45;101151.81;5044885;28;20032;-67
2023/03/21 05:59:07;;;;;;;3.33;2.60;;;;;;;7.70;99.27;101153.63;5050055;28;20063;-66
2023/03/21 06:01:32;;;;;;;5.00;2.53;;;;;;;7.69;99.72;101151.97;5030250;28;20032;-67
2023/03/21 06:03:58;;;;;;;2.60;2.30;;;;;;;7.71;99.57;101150.75;5026325;28;20039;-66
2023/03/21 06:06:24;;;;;;;3.45;2.90;;;;;;;7.68;99.55;101156.47;5058639;28;20029;-66
2023/03/21 06:08:49;;;;;;;3.55;2.53;;;;;;;7.58;100.00;101150.44;5023330;28;20040;-67
2023/03/21 06:11:23;;;;;;;3.17;2.60;;;;;;;7.65;99.92;101147.94;5042662;28;20043;-65
2023/03/21 06:13:49;;;;;;;5.00;2.60;;;;;;;7.59;99.26;101141.44;5037625;28;20036;-66
2023/03/21 06:16:14;;;;;;;2.50;2.28;;;;;;;7.58;99.46;101154.97;5039583;28;20025;-68
2023/03/21 06:18:40;;;;;;;2.03;1.83;;;;;;;7.46;99.81;101139.28;5043574;28;20484;-66
2023/03/21 06:21:05;;;;;;;2.35;1.90;;;;;;;7.49;99.99;101151.50;5043029;28;20028;-66
2023/03/21 06:23:31;;;;;;;2.67;2.20;;;;;;;7.59;99.52;101154.00;5060705;28;20055;-66
2023/03/21 06:25:56;;;;;;;1.90;1.75;;;;;;;7.48;100.00;101141.78;5019970;28;1282115;-66
2023/03/21 06:28:22;;;;;;;2.80;2.17;;;;;;;7.61;99.83;101141.25;5048560;28;20056;-67
2023/03/21 06:30:47;;;;;;;2.42;1.98;;;;;;;7.63;99.82;101137.41;5048856;28;20032;-67
2023/03/21 06:33:12;;;;;;;2.70;2.30;;;;;;;7.72;100.00;101130.19;5047407;28;20033;-67
2023/03/21 06:35:38;;;;;;;2.92;2.00;;;;;;;7.67;99.70;101128.00;5065427;28;20082;-67
2023/03/21 06:38:03;;;;;;;2.20;2.00;;;;;;;7.68;99.82;101134.19;5062698;28;20025;-67
2023/03/21 06:40:29;;;;;;;2.53;1.80;;;;;;;7.52;100.00;101125.22;5028519;28;20098;-67
2023/03/21 06:42:54;;;;;;;2.05;1.77;;;;;;;7.53;100.00;101124.19;5065309;28;20025;-67
2023/03/21 06:45:20;;;;;;;2.88;1.92;;;;;;;7.56;100.00;101115.00;5065585;28;20052;-68
2023/03/21 06:47:45;;;;;;;4.85;2.03;;;;;;;7.48;100.00;101126.56;5064485;28;20029;-67
2023/03/21 06:50:11;;;;;;;3.97;1.83;;;;;;;7.58;100.00;101129.03;5043746;28;20029;-67
2023/03/21 06:52:36;;;;;;;2.92;2.03;;;;;;;7.60;100.00;101127.03;5041729;28;20049;-66
2023/03/21 06:55:02;;;;;;;4.60;1.98;;;;;;;7.62;100.00;101132.22;5059916;28;20029;-67
2023/03/21 06:57:27;;;;;;;2.90;2.10;;;;;;;7.66;99.98;101125.50;5025707;28;20044;-66
2023/03/21 06:59:52;;;;;;;3.05;1.90;;;;;;;7.62;99.85;101118.84;5042003;28;20063;-66
2023/03/21 07:02:18;;;;;;;4.82;2.17;;;;;;;7.65;100.00;101131.84;5060181;28;20048;-66
2023/03/21 07:04:43;;;;;;;4.03;2.38;;;;;;;7.64;100.00;101139.06;5060296;28;20395;-66
2023/03/21 07:07:09;;;;;;;5.18;2.00;;;;;;;7.54;99.99;101122.34;5060632;28;20115;-66
2023/03/21 07:09:35;;;;;;;3.38;2.50;;;;;;;7.74;100.00;101149.59;5042056;28;20044;-66
2023/03/21 07:12:01;;;;;;;3.03;2.10;;;;;;;7.84;100.00;101152.91;5042733;28;20117;-66
2023/03/21 07:14:26;;;;;;;3.95;2.22;;;;;;;7.79;100.00;101149.91;5040564;28;20093;-66
2023/03/21 07:16:51;;;;;;;4.72;2.00;;;;;;;7.80;99.93;101148.06;5058087;28;20017;-66
2023/03/21 07:19:17;;;;;;;3.70;1.90;;;;;;;7.86;100.00;101144.69;5061361;28;20086;-66
2023/03/21 07:21:42;;;;;;;2.78;1.50;;;;;;;7.86;99.47;101150.88;5061387;28;20039;-66
2023/03/21 07:24:08;;;;;;;2.67;1.60;;;;;;;7.95;100.00;101143.66;5026996;28;20060;-66
2023/03/21 07:26:33;;;;;;;2.70;1.50;;;;;;;7.98;99.57;101148.69;5027166;28;20191;-66
2023/03/21 07:28:59;;;;;;;2.85;1.58;;;;;;;8.06;99.52;101155.84;5063892;28;20039;-66
2023/03/21 07:31:25;;;;;;;2.85;1.77;;;;;;;8.13;98.96;101160.31;5064962;28;20043;-66
2023/03/21 07:33:51;;;;;;;3.65;1.50;;;;;;;8.16;99.11;101159.16;5043382;28;20101;-66
2023/03/21 07:36:16;;;;;;;3.05;1.20;;;;;;;8.15;98.96;101157.50;5024700;28;20056;-66
2023/03/21 07:38:43;;;;;;;3.75;1.25;;;;;;;8.07;99.45;101154.81;5045442;28;20033;-66
2023/03/21 07:41:08;;;;;;;2.10;1.20;;;;;;;8.08;99.16;101157.34;5064493;28;20061;-66
2023/03/21 07:43:34;;;;;;;4.05;1.30;;;;;;;8.11;98.93;101154.31;5064219;28;20033;-66
2023/03/21 07:46:00;;;;;;;2.95;1.30;;;;;;;8.08;99.32;101157.34;5064790;28;20028;-67
2023/03/21 07:48:26;;;;;;;4.85;1.42;;;;;;;8.13;98.37;101154.97;5046363;28;20128;-67
2023/03/21 07:50:51;;;;;;;2.40;1.20;;;;;;;8.19;98.06;101154.28;5064438;28;20387;-66
2023/03/21 07:53:17;;;;;;;3.80;1.50;;;;;;;8.12;98.48;101139.06;5046300;28;20029;-66
2023/03/21 07:55:42;;;;;;;3.20;1.45;;;;;;;8.19;97.99;101154.28;5046624;28;20033;-66
2023/03/21 07:58:08;;;;;;;1.95;1.23;;;;;;;8.22;98.47;101155.78;5029777;28;20017;-66
2023/03/21 08:00:33;;;;;;;5.40;1.30;;;;;;;8.07;98.38;101138.75;5046771;28;20353;-66
2023/03/21 08:02:59;;;;;;;5.13;1.40;;;;;;;8.19;98.28;101154.28;5046840;28;20025;-66
2023/03/21 08:05:33;;;;;;;4.63;1.40;;;;;;;8.24;97.95;101153.72;5055625;28;20037;-66
2023/03/21 08:07:59;;;;;;;4.38;1.23;;;;;;;8.27;97.54;101150.69;5062003;28;20029;-67
2023/03/21 08:10:25;;;;;;;3.45;1.30;;;;;;;8.27;97.36;101155.22;5064709;28;20136;-67
2023/03/21 08:12:51;;;;;;;3.35;1.40;;;;;;;8.38;96.92;101145.00;5064456;28;20029;-66
2023/03/21 08:15:17;;;;;;;4.25;1.30;;;;;;;8.39;96.96;101143.16;5065913;28;20025;-66
2023/03/21 08:17:44;;;;;;;3.45;1.40;;;;;;;8.43;96.45;101145.28;5069081;28;20021;-67
2023/03/21 08:20:12;;;;;;;3.95;1.45;;;;;;;8.51;96.42;101144.41;5060038;28;20013;-66
2023/03/21 08:22:38;;;;;;;2.63;1.17;;;;;;;8.48;96.41;101139.41;5038358;28;20029;-66
2023/03/21 08:25:06;;;;;;;2.85;1.30;;;;;;;8.63;96.09;101136.78;5057041;28;20040;-66
2023/03/21 08:27:33;;;;;;;4.13;1.27;;;;;;;8.63;95.95;101137.63;5041353;28;20049;-66
2023/03/21 08:29:59;;;;;;;6.25;1.38;;;;;;;8.70;95.99;101135.88;5058370;28;20029;-67
2023/03/21 08:32:28;;;;;;;3.92;1.05;;;;;;;8.68;95.51;101137.09;5023908;28;20368;-66
2023/03/21 08:35:08;;;;;;;4.35;1.10;;;;;;;8.81;94.96;101134.66;5058026;28;20029;-66
2023/03/21 08:37:35;;;;;;;3.95;1.20;;;;;;;8.95;94.76;101130.34;5058448;28;20031;-66
2023/03/21 08:40:00;;;;;;;4.15;1.20;;;;;;;9.09;93.69;101129.53;5042137;28;20033;-67
2023/03/21 08:42:26;;;;;;;6.95;1.17;;;;;;;9.11;94.12;101126.69;5041368;28;20028;-66
2023/03/21 08:44:51;;;;;;;5.68;1.30;;;;;;;9.16;94.74;101121.59;5058642;28;20059;-66
2023/03/21 08:47:17;;;;;;;3.95;1.30;;;;;;;9.29;93.57;101129.03;5039575;28;20091;-67
2023/03/21 08:49:44;;;;;;;4.40;1.20;;;;;;;9.26;93.95;101130.22;5057405;28;20040;-66
2023/03/21 08:52:10;;;;;;;5.80;1.15;;;;;;;9.24;93.32;101128.72;5057499;28;20029;-66
2023/03/21 08:54:35;;;;;;;6.80;1.20;;;;;;;9.30;93.47;101125.31;5057863;28;20032;-66
2023/03/21 08:57:01;;;;;;;4.30;0.90;;;;;;;9.41;92.64;101124.88;5056117;28;20487;-66
2023/03/21 08:59:26;;;;;;;2.97;0.90;;;;;;;9.46;91.96;101135.91;5040499;28;20033;-66
2023/03/21 09:01:52;;;;;;;2.65;1.00;;;;;;;9.52;91.75;101134.34;5038961;28;20052;-67
2023/03/21 09:04:17;;;;;;;3.75;0.90;;;;;;;9.68;90.62;101136.03;5034224;28;20037;-67
2023/03/21 09:06:44;;;;;;;4.28;1.17;;;;;;;9.81;90.45;101133.53;5038091;28;20025;-67
2023/03/21 09:09:11;;;;;;;4.40;1.05;;;;;;;9.80;90.09;101119.25;5039525;28;20036;-66
2023/03/21 09:11:37;;;;;;;2.92;0.70;;;;;;;9.67;89.41;101102.09;5057795;28;20066;-67
2023/03/21 09:14:02;;;;;;;4.13;1.10;;;;;;;9.76;89.66;101126.00;5057553;28;20017;-66
2023/03/21 09:16:27;;;;;;;4.50;1.00;;;;;;;9.86;88.57;101123.84;5057154;28;20084;-66
2023/03/21 09:18:55;;;;;;;3.72;0.90;;;;;;;9.86;88.50;101120.34;5039130;28;20025;-66
2023/03/21 09:21:22;;;;;;;3.55;1.00;;;;;;;9.67;88.15;101108.31;5039029;28;20063;-66
2023/03/21 09:23:54;;;;;;;4.38;1.13;;;;;;;9.74;87.63;101124.53;5056673;28;20036;-66
2023/03/21 09:26:22;;;;;;;5.55;1.90;;;;;;;9.82;87.84;101125.25;5039270;28;20028;-66
2023/03/21 09:28:49;;;;;;;5.15;1.40;;;;;;;9.86;86.57;101128.41;5056917;28;20044;-66
2023/03/21 09:31:18;;;;;;;4.25;1.52;;;;;;;9.98;85.84;101128.78;5057390;28;20024;-66
2023/03/21 09:33:43;;;;;;;8.82;2.22;;;;;;;9.81;86.85;101131.66;5039232;28;20104;-66
2023/03/21 09:36:12;;;;;;;8.60;3.22;;;;;;;9.91;86.54;101130.56;5061819;28;20135;-66
2023/03/21 09:38:43;;;;;;;9.93;3.28;;;;;;;10.01;87.07;101133.78;5045395;28;20025;-66
2023/03/21 09:41:47;;;;;;;7.43;2.38;;;;;;;10.02;85.60;101130.91;5045804;28;20147;-66
2023/03/21 09:44:32;;;;;;;5.05;2.13;;;;;;;10.13;86.21;101121.50;5061366;28;20044;-66
2023/03/21 09:47:20;;;;;;;10.80;2.50;;;;;;;10.23;86.11;101122.06;5063019;28;20626;-66
2023/03/21 09:49:50;;;;;;;5.70;2.35;;;;;;;10.34;85.50;101124.28;5063383;28;20393;-66
2023/03/21 09:52:38;;;;;;;6.93;2.30;;;;;;;10.27;84.72;101127.94;5044335;28;20037;-66
2023/03/21 09:55:17;;;;;;;6.55;2.15;;;;;;;10.38;85.61;101116.66;5056437;28;20225;-66
2023/03/21 09:57:47;;;;;;;4.75;1.85;;;;;;;10.42;nan;101119.81;5056401;28;20029;-66
2023/03/21 10:00:29;;;;;;;8.23;2.13;;;;;;;10.51;84.46;101103.34;5037662;28;20021;-66
2023/03/21 10:03:01;;;;;;;5.50;2.25;;;;;;;10.40;84.44;101111.94;5053102;28;20507;-66
2023/03/21 10:05:31;;;;;;;6.47;2.53;;;;;;;10.55;84.08;101117.25;5057279;28;20049;-67
2023/03/21 10:08:08;;;;;;;6.30;2.15;;;;;;;10.70;83.78;101111.84;5056433;28;20029;-66
2023/03/21 10:11:00;;;;;;;6.57;2.60;;;;;;;10.74;83.27;101105.88;5056080;28;20024;-66
2023/03/21 10:13:31;;;;;;;6.93;2.25;;;;;;;10.71;83.06;101106.25;5056455;28;20031;-67
2023/03/21 10:15:59;;;;;;;6.70;2.47;;;;;;;10.57;83.12;101112.53;5055944;28;20079;-66
2023/03/21 10:18:29;;;;;;;5.25;2.10;;;;;;;10.53;83.05;101105.88;5056306;28;20017;-66
2023/03/21 10:20:54;;;;;;;5.68;2.28;;;;;;;10.51;82.97;101108.72;5037378;28;20159;-66
2023/03/21 10:23:24;;;;;;;6.40;2.03;;;;;;;10.38;82.59;101103.22;5056013;28;20116;-66
2023/03/21 10:25:55;;;;;;;7.22;2.38;;;;;;;10.38;82.02;101089.78;5055699;28;20403;-66
2023/03/21 10:28:25;;;;;;;6.78;2.10;;;;;;;10.23;82.21;101095.19;5038355;28;20021;-66
2023/03/21 10:31:03;;;;;;;5.35;2.20;;;;;;;10.10;82.20;101074.34;5056532;28;20025;-67
2023/03/21 10:33:34;;;;;;;7.90;2.50;;;;;;;10.40;81.81;101105.69;5038102;28;20057;-66
2023/03/21 10:36:08;;;;;;;10.13;2.30;;;;;;;10.53;81.71;101106.69;5055705;28;20087;-67
2023/03/21 10:38:34;;;;;;;4.72;2.20;;;;;;;10.70;80.56;101099.22;5056301;28;20021;-66
2023/03/21 10:41:00;;;;;;;6.40;2.25;;;;;;;10.47;81.15;101091.31;5038042;28;20513;-66
2023/03/21 10:43:34;;;;;;;4.85;2.15;;;;;;;10.49;81.24;101091.94;5037920;28;20037;-66
2023/03/21 10:46:26;;;;;;;5.90;2.10;;;;;;;10.47;80.71;101095.88;5056037;28;20337;-66
2023/03/21 10:48:53;;;;;;;6.72;1.88;;;;;;;10.32;80.99;101094.03;5055978;28;20040;-66
2023/03/21 10:51:21;;;;;;;4.20;1.70;;;;;;;10.38;80.68;101092.47;5038081;28;20039;-66
2023/03/21 10:53:54;;;;;;;7.80;2.20;;;;;;;10.06;81.26;101091.03;5055857;28;20025;-66
2023/03/21 10:56:27;;;;;;;4.10;2.05;;;;;;;10.04;81.38;101093.09;5038127;28;20021;-66
2023/03/21 10:58:57;;;;;;;4.43;2.03;;;;;;;9.65;81.24;101044.00;5037818;28;20488;-66
2023/03/21 11:01:35;;;;;;;3.55;1.73;;;;;;;9.83;81.58;101083.94;5055419;28;20416;-66
2023/03/21 11:04:19;;;;;;;4.47;1.95;;;;;;;9.83;81.52;101083.94;5056080;28;20456;-66
2023/03/21 11:06:51;;;;;;;5.33;2.10;;;;;;;9.80;81.39;101083.47;5055412;28;20029;-66
2023/03/21 11:09:23;;;;;;;5.72;2.10;;;;;;;9.80;81.87;101083.47;5055679;28;20081;-67
2023/03/21 11:12:08;;;;;;;6.15;2.10;;;;;;;9.81;82.17;101083.28;5039821;28;20040;-66
2023/03/21 11:14:47;;;;;;;5.60;1.92;;;;;;;9.80;81.19;101086.16;5041327;28;20047;-66
2023/03/21 11:17:16;;;;;;;4.07;1.85;;;;;;;9.89;81.25;101068.91;5041108;28;20169;-66
2023/03/21 11:19:48;;;;;;;5.03;1.90;;;;;;;10.12;80.50;101058.00;5041211;28;20060;-66
2023/03/21 11:22:14;;;;;;;5.22;2.13;;;;;;;9.87;81.07;101041.41;5042286;28;20422;-65
2023/03/21 11:24:46;;;;;;;4.70;2.00;;;;;;;9.96;80.72;101051.00;5060952;28;20041;-66
2023/03/21 11:27:12;;;;;;;5.68;1.90;;;;;;;9.78;81.97;101053.28;5060142;28;20053;-67
2023/03/21 11:29:40;;;;;;;7.10;2.05;;;;;;;9.94;80.89;101052.22;5041538;28;20025;-66
2023/03/21 11:32:10;;;;;;;7.47;2.13;;;;;;;9.84;80.68;101047.16;5041021;28;20027;-67
2023/03/21 11:34:52;;;;;;;6.10;2.20;;;;;;;9.82;80.77;101016.94;5058599;28;20032;-66
2023/03/21 11:37:30;;;;;;;7.68;2.05;;;;;;;10.06;80.16;101037.25;5059535;28;20456;-66
2023/03/21 11:40:22;;;;;;;5.72;2.15;;;;;;;10.06;80.66;101039.94;5059102;28;20367;-67